TAF Flughafenprognosen

Nürnberg TAF, ausgegeben Mo 03.10. 13:00

TAF EDDN 031100Z 0312/0412 29008KT 9999 FEW030 SCT045 BECMG 0316/0318 VRB03KT PROB40 TEMPO 0401/0407 0600 FG VV002 BECMG 0408/0410 15005KT
GültigkeitVonBisWind in Beaufort
(Knoten)
Wolken
(Meter über Grund)
Sichtweite
(Meter)
Wettererscheinung
Grundvorhersage Mo 03.10. 14:00 Di 04.10. 14:00 WNW 3 (8) Wolkig (1400)
Leicht bewölkt (910)
>= 10000  
Übergang zu Mo 03.10. 18:00 Mo 03.10. 20:00 Uml 2 (3)      
Vorübergehend
(Wahrscheinlichkeit 40 %)
Di 04.10. 03:00 Di 04.10. 09:00     600 Nebel
Übergang zu Di 04.10. 10:00 Di 04.10. 12:00 SSO 2 (5)      

 

Hof TAF, ausgegeben Mo 03.10. 13:00

TAF EDQM 031100Z 0312/0321 31008KT 9999 SCT030 BECMG 0317/0319 27003KT
GültigkeitVonBisWind in Beaufort
(Knoten)
Wolken
(Meter über Grund)
Sichtweite
(Meter)
Wettererscheinung
Grundvorhersage Mo 03.10. 14:00 Mo 03.10. 23:00 NW 3 (8) Wolkig (910) >= 10000  
Übergang zu Mo 03.10. 19:00 Mo 03.10. 21:00 W 2 (3)      

 

Erfurt-Bindersleben TAF, ausgegeben Mo 03.10. 13:00

TAF EDDE 031100Z 0312/0412 28010KT 9999 FEW030 BECMG 0315/0317 27004KT PROB40 TEMPO 0400/0409 1000 BR BKN004
GültigkeitVonBisWind in Beaufort
(Knoten)
Wolken
(Meter über Grund)
Sichtweite
(Meter)
Wettererscheinung
Grundvorhersage Mo 03.10. 14:00 Di 04.10. 14:00 W 3 (10) Leicht bewölkt (910) >= 10000  
Übergang zu Mo 03.10. 17:00 Mo 03.10. 19:00 W 2 (4)      
Vorübergehend
(Wahrscheinlichkeit 40 %)
Di 04.10. 02:00 Di 04.10. 11:00   Stark bewölkt (120) 1000 Nebeldunst

 

Augsburg TAF, ausgegeben Mo 03.10. 13:00

TAF EDMA 031100Z 0312/0321 31005KT 9999 SCT030 BECMG 0315/0317 VRB03KT PROB30 TEMPO 0320/0321 2000 BCFG
GültigkeitVonBisWind in Beaufort
(Knoten)
Wolken
(Meter über Grund)
Sichtweite
(Meter)
Wettererscheinung
Grundvorhersage Mo 03.10. 14:00 Mo 03.10. 23:00 NW 2 (5) Wolkig (910) >= 10000  
Übergang zu Mo 03.10. 17:00 Mo 03.10. 19:00 Uml 2 (3)      
Vorübergehend
(Wahrscheinlichkeit 30 %)
Mo 03.10. 22:00 Mo 03.10. 23:00     2000 Nebel-Bänke

 

Frankfurt TAF, ausgegeben Mo 03.10. 13:00

TAF EDDF 031100Z 0312/0418 29006KT 9999 SCT045 TEMPO 0312/0316 BKN040 BECMG 0317/0319 VRB03KT BECMG 0323/0401 4000 BR OVC003 PROB40 TEMPO 0401/0408 0300 FG VV001 TEMPO 0408/0410 BKN010 BECMG 0410/0412 19005KT SCT015
GültigkeitVonBisWind in Beaufort
(Knoten)
Wolken
(Meter über Grund)
Sichtweite
(Meter)
Wettererscheinung
Grundvorhersage Mo 03.10. 14:00 Di 04.10. 20:00 WNW 2 (6) Wolkig (1400) >= 10000  
Vorübergehend Mo 03.10. 14:00 Mo 03.10. 18:00   Stark bewölkt (1200)    
Übergang zu Mo 03.10. 19:00 Mo 03.10. 21:00 Uml 2 (3)      
Übergang zu Di 04.10. 01:00 Di 04.10. 03:00   Bedeckt (91) 4000 Nebeldunst
Vorübergehend
(Wahrscheinlichkeit 40 %)
Di 04.10. 03:00 Di 04.10. 10:00     300 Nebel
Vorübergehend Di 04.10. 10:00 Di 04.10. 12:00   Stark bewölkt (300)    
Übergang zu Di 04.10. 12:00 Di 04.10. 14:00 S 2 (5) Wolkig (460)    

 

Stuttgart TAF, ausgegeben Mo 03.10. 13:00

TAF EDDS 031100Z 0312/0412 33005KT 9999 SCT025 BECMG 0317/0319 VRB02KT BECMG 0323/0401 4000 BR OVC003 PROB40 TEMPO 0401/0408 0200 FG VV001 BECMG 0408/0410 13005KT 9999 SCT015
GültigkeitVonBisWind in Beaufort
(Knoten)
Wolken
(Meter über Grund)
Sichtweite
(Meter)
Wettererscheinung
Grundvorhersage Mo 03.10. 14:00 Di 04.10. 14:00 NNW 2 (5) Wolkig (760) >= 10000  
Übergang zu Mo 03.10. 19:00 Mo 03.10. 21:00 Uml 1 (2)      
Übergang zu Di 04.10. 01:00 Di 04.10. 03:00   Bedeckt (91) 4000 Nebeldunst
Vorübergehend
(Wahrscheinlichkeit 40 %)
Di 04.10. 03:00 Di 04.10. 10:00     200 Nebel
Übergang zu Di 04.10. 10:00 Di 04.10. 12:00 SO 2 (5) Wolkig (460) >= 10000  

 

München TAF, ausgegeben Mo 03.10. 13:00

TAF EDDM 031100Z 0312/0418 30007KT 9999 FEW030 SCT045 BECMG 0316/0318 VRB03KT TEMPO 0321/0323 1200 BCFG BECMG 0323/0401 0600 FG TEMPO 0402/0407 0400 FG VV002 TEMPO 0407/0408 3000 BR BKN003 BECMG 0407/0409 9000 TEMPO 0410/0415 10005KT
GültigkeitVonBisWind in Beaufort
(Knoten)
Wolken
(Meter über Grund)
Sichtweite
(Meter)
Wettererscheinung
Grundvorhersage Mo 03.10. 14:00 Di 04.10. 20:00 WNW 3 (7) Wolkig (1400)
Leicht bewölkt (910)
>= 10000  
Übergang zu Mo 03.10. 18:00 Mo 03.10. 20:00 Uml 2 (3)      
Vorübergehend Mo 03.10. 23:00 Di 04.10. 01:00     1200 Nebel-Bänke
Übergang zu Di 04.10. 01:00 Di 04.10. 03:00     600 Nebel
Vorübergehend Di 04.10. 04:00 Di 04.10. 09:00     400 Nebel
Vorübergehend Di 04.10. 09:00 Di 04.10. 10:00   Stark bewölkt (91) 3000 Nebeldunst
Übergang zu Di 04.10. 09:00 Di 04.10. 11:00     9000  
Vorübergehend Di 04.10. 12:00 Di 04.10. 17:00 O 2 (5)